createdAt,value
2023-02-03T00:01:50.166Z,7.63
2023-02-03T00:04:16.761Z,7.61
2023-02-03T00:06:44.019Z,7.54
2023-02-03T00:09:10.765Z,7.64
2023-02-03T00:11:37.766Z,7.77
2023-02-03T00:14:04.471Z,7.79
2023-02-03T00:16:31.465Z,7.85
2023-02-03T00:18:57.995Z,7.86
2023-02-03T00:21:25.323Z,7.91
2023-02-03T00:23:51.826Z,7.91
2023-02-03T00:26:18.556Z,7.93
2023-02-03T00:28:45.511Z,7.98
2023-02-03T00:31:21.178Z,7.94
2023-02-03T00:33:52.926Z,8.14
2023-02-03T00:36:19.449Z,8.19
2023-02-03T00:38:45.900Z,8.15
2023-02-03T00:41:12.391Z,8.31
2023-02-03T00:43:38.970Z,8.35
2023-02-03T00:46:05.508Z,8.40
2023-02-03T00:48:32.016Z,8.48
2023-02-03T00:50:58.537Z,8.53
2023-02-03T00:53:24.989Z,8.59
2023-02-03T00:55:51.449Z,8.62
2023-02-03T00:58:17.923Z,8.62
2023-02-03T01:00:44.376Z,8.63
2023-02-03T01:03:10.865Z,8.63
2023-02-03T01:05:37.368Z,8.59
2023-02-03T01:08:04.045Z,8.56
2023-02-03T01:10:30.607Z,8.56
2023-02-03T01:12:57.159Z,8.54
2023-02-03T01:15:23.626Z,8.52
2023-02-03T01:17:50.114Z,8.55
2023-02-03T01:20:16.726Z,8.54
2023-02-03T01:22:43.199Z,8.62
2023-02-03T01:25:09.798Z,8.62
2023-02-03T01:27:36.477Z,8.70
2023-02-03T01:30:03.247Z,8.72
2023-02-03T01:32:29.749Z,8.70
2023-02-03T01:34:56.230Z,8.72
2023-02-03T01:37:22.750Z,8.79
2023-02-03T01:39:49.246Z,8.62
2023-02-03T01:42:16.295Z,8.63
2023-02-03T01:44:49.115Z,8.62
2023-02-03T01:47:18.989Z,8.34
2023-02-03T01:49:55.808Z,8.34
2023-02-03T01:52:23.271Z,8.50
2023-02-03T01:54:53.623Z,8.41
2023-02-03T01:57:27.060Z,8.59
2023-02-03T01:59:58.995Z,8.65
2023-02-03T02:02:25.710Z,8.74
2023-02-03T02:05:31.042Z,8.85
2023-02-03T02:08:01.644Z,8.92
2023-02-03T02:10:30.333Z,8.93
2023-02-03T02:13:03.263Z,8.91
2023-02-03T02:15:58.187Z,9.05
2023-02-03T02:18:39.970Z,9.13
2023-02-03T02:21:43.902Z,9.22
2023-02-03T02:24:44.411Z,8.91
2023-02-03T02:27:48.485Z,9.07
2023-02-03T02:30:56.827Z,9.27
2023-02-03T02:33:53.500Z,9.25
2023-02-03T02:36:49.848Z,9.19
2023-02-03T02:39:54.650Z,9.27
2023-02-03T02:42:41.269Z,9.36
2023-02-03T02:45:20.776Z,9.41
2023-02-03T02:47:49.640Z,9.42
2023-02-03T02:50:28.798Z,9.38
2023-02-03T02:52:57.669Z,9.39
2023-02-03T02:55:28.541Z,9.50
2023-02-03T02:58:04.653Z,9.53
2023-02-03T03:00:34.389Z,9.59
2023-02-03T03:03:15.644Z,9.55
2023-02-03T03:05:48.577Z,9.54
2023-02-03T03:08:21.242Z,9.49
2023-02-03T03:10:48.780Z,9.54
2023-02-03T03:13:24.893Z,9.32
2023-02-03T03:15:56.733Z,9.34
2023-02-03T03:18:38.786Z,9.38
2023-02-03T03:21:07.510Z,9.42
2023-02-03T03:23:44.901Z,9.44
2023-02-03T03:26:32.273Z,9.42
2023-02-03T03:29:14.750Z,9.43
2023-02-03T03:31:41.938Z,9.50
2023-02-03T03:34:12.176Z,9.49
2023-02-03T03:36:58.000Z,9.49
2023-02-03T03:39:35.367Z,9.45
2023-02-03T03:42:15.135Z,9.43
2023-02-03T03:44:58.799Z,9.45
2023-02-03T03:47:39.673Z,9.41
2023-02-03T03:50:11.562Z,9.34
2023-02-03T03:52:41.573Z,9.34
2023-02-03T03:55:12.922Z,9.25
2023-02-03T03:58:06.863Z,9.15
2023-02-03T04:00:37.571Z,9.33
2023-02-03T04:03:17.618Z,9.29
2023-02-03T04:05:44.389Z,9.35
2023-02-03T04:08:10.854Z,9.36
2023-02-03T04:10:40.946Z,9.46
2023-02-03T04:13:09.201Z,9.35
2023-02-03T04:15:38.876Z,9.42
2023-02-03T04:18:05.696Z,9.40
2023-02-03T04:20:33.182Z,9.41
2023-02-03T04:23:00.402Z,9.45
2023-02-03T04:25:26.931Z,9.43
2023-02-03T04:27:54.280Z,9.39
2023-02-03T04:30:20.923Z,9.38
2023-02-03T04:32:47.557Z,9.23
2023-02-03T04:35:14.596Z,9.10
2023-02-03T04:37:41.492Z,9.12
2023-02-03T04:40:08.898Z,9.03
2023-02-03T04:42:37.614Z,9.00
2023-02-03T04:45:05.895Z,9.03
2023-02-03T04:47:32.372Z,9.03
2023-02-03T04:49:58.884Z,8.97
2023-02-03T04:52:25.361Z,8.93
2023-02-03T04:54:51.850Z,8.90
2023-02-03T04:57:18.361Z,8.72
2023-02-03T04:59:44.843Z,8.36
2023-02-03T05:02:11.398Z,8.13
2023-02-03T05:04:38.571Z,8.09
2023-02-03T05:07:05.020Z,8.06
2023-02-03T05:09:31.502Z,8.15
2023-02-03T05:11:57.964Z,8.20
2023-02-03T05:14:24.419Z,8.10
2023-02-03T05:16:50.962Z,8.17
2023-02-03T05:19:17.540Z,8.15
2023-02-03T05:21:44.018Z,8.01
2023-02-03T05:24:10.539Z,8.04
2023-02-03T05:26:37.072Z,7.85
2023-02-03T05:29:03.942Z,7.87
2023-02-03T05:31:30.484Z,7.86
2023-02-03T05:33:57.072Z,7.84
2023-02-03T05:36:23.565Z,7.75
2023-02-03T05:38:50.204Z,7.73
2023-02-03T05:41:16.657Z,7.70
2023-02-03T05:43:43.147Z,7.65
2023-02-03T05:46:09.690Z,7.67
2023-02-03T05:48:36.410Z,7.57
2023-02-03T05:51:03.095Z,7.40
2023-02-03T05:53:29.645Z,7.34
2023-02-03T05:55:56.292Z,7.20
2023-02-03T05:58:22.970Z,7.18
2023-02-03T06:00:52.483Z,7.16
2023-02-03T06:03:18.975Z,7.15
2023-02-03T06:05:45.467Z,7.36
2023-02-03T06:08:11.965Z,7.18
2023-02-03T06:10:38.475Z,7.36
2023-02-03T06:13:11.008Z,7.22
2023-02-03T06:15:37.693Z,6.95
2023-02-03T06:18:04.278Z,6.86
2023-02-03T06:20:30.978Z,6.28
2023-02-03T06:22:57.468Z,5.91
2023-02-03T06:25:24.001Z,5.59
2023-02-03T06:27:51.121Z,5.27
2023-02-03T06:30:18.048Z,5.13
2023-02-03T06:32:44.502Z,5.11
2023-02-03T06:35:10.997Z,5.07
2023-02-03T06:37:37.456Z,5.32
2023-02-03T06:40:04.628Z,5.62
2023-02-03T06:42:32.010Z,5.76
2023-02-03T06:44:58.512Z,6.02
2023-02-03T06:47:24.987Z,6.14
2023-02-03T06:49:51.576Z,6.09
2023-02-03T06:52:18.667Z,6.40
2023-02-03T06:54:45.153Z,6.33
2023-02-03T06:57:11.652Z,6.53
2023-02-03T06:59:38.141Z,6.52
2023-02-03T07:02:04.615Z,6.63
2023-02-03T07:04:31.123Z,6.73
2023-02-03T07:06:57.619Z,6.79
2023-02-03T07:09:24.101Z,6.87
2023-02-03T07:11:50.580Z,6.82
2023-02-03T07:14:17.129Z,6.94
2023-02-03T07:16:43.589Z,7.08
2023-02-03T07:19:10.066Z,7.00
2023-02-03T07:21:36.632Z,6.93
2023-02-03T07:24:03.198Z,7.11
2023-02-03T07:26:29.690Z,7.06
2023-02-03T07:28:56.152Z,7.13
2023-02-03T07:31:22.711Z,7.07
2023-02-03T07:33:49.402Z,7.09
2023-02-03T07:36:15.873Z,7.20
2023-02-03T07:38:42.400Z,7.08
2023-02-03T07:41:08.873Z,7.30
2023-02-03T07:43:35.490Z,7.13
2023-02-03T07:46:02.039Z,7.25
2023-02-03T07:48:28.524Z,7.24
2023-02-03T07:50:54.962Z,7.41
2023-02-03T07:53:21.481Z,7.29
2023-02-03T07:55:48.031Z,7.32
2023-02-03T07:58:14.515Z,7.46
2023-02-03T08:00:41.019Z,7.45
2023-02-03T08:03:07.675Z,7.58
2023-02-03T08:05:34.217Z,7.82
2023-02-03T08:08:00.930Z,7.85
2023-02-03T08:10:27.757Z,8.01
2023-02-03T08:12:55.983Z,8.08
2023-02-03T08:15:22.547Z,8.19
2023-02-03T08:17:50.317Z,8.21
2023-02-03T08:20:18.038Z,8.34
2023-02-03T08:22:44.860Z,8.40
2023-02-03T08:25:11.389Z,8.37
2023-02-03T08:27:39.690Z,8.51
2023-02-03T08:30:08.315Z,8.62
2023-02-03T08:32:34.864Z,8.78
2023-02-03T08:35:01.610Z,8.93
2023-02-03T08:37:28.316Z,9.01
2023-02-03T08:39:54.847Z,8.82
2023-02-03T08:42:21.364Z,8.72
2023-02-03T08:44:47.877Z,8.63
2023-02-03T08:47:14.435Z,8.60
2023-02-03T08:49:41.199Z,8.83
2023-02-03T08:52:11.134Z,8.39
2023-02-03T08:54:38.241Z,8.48
2023-02-03T08:57:05.157Z,8.92
2023-02-03T08:59:31.939Z,8.85
2023-02-03T09:01:58.397Z,9.18
2023-02-03T09:04:26.906Z,9.15
2023-02-03T09:06:54.572Z,9.09
2023-02-03T09:09:22.237Z,8.87
2023-02-03T09:11:48.866Z,8.33
2023-02-03T09:14:15.315Z,8.46
2023-02-03T09:16:44.900Z,8.39
2023-02-03T09:19:11.556Z,8.04
2023-02-03T09:21:39.285Z,8.39
2023-02-03T09:24:12.945Z,8.82
2023-02-03T09:26:39.474Z,8.83
2023-02-03T09:29:06.281Z,8.71
2023-02-03T09:31:32.765Z,8.82
2023-02-03T09:33:59.848Z,8.83
2023-02-03T09:36:26.880Z,8.96
2023-02-03T09:38:53.403Z,9.21
2023-02-03T09:41:36.079Z,9.03
2023-02-03T09:44:15.043Z,8.65
2023-02-03T09:46:53.280Z,8.89
2023-02-03T09:49:36.049Z,8.94
2023-02-03T09:52:23.511Z,9.23
2023-02-03T09:55:10.255Z,9.41
2023-02-03T09:57:52.221Z,9.04
2023-02-03T10:00:35.710Z,8.85
2023-02-03T10:03:20.767Z,9.16
2023-02-03T10:05:58.889Z,9.24
2023-02-03T10:08:50.188Z,9.26
2023-02-03T10:11:31.767Z,9.06
2023-02-03T10:14:47.504Z,9.00
2023-02-03T10:17:33.965Z,9.35
2023-02-03T10:20:18.380Z,9.49
2023-02-03T10:22:53.835Z,9.84
2023-02-03T10:25:28.896Z,9.88
2023-02-03T10:28:00.964Z,10.07
2023-02-03T10:30:33.766Z,10.27
2023-02-03T10:33:10.680Z,10.49
2023-02-03T10:35:51.717Z,10.63
2023-02-03T10:38:41.895Z,10.51
2023-02-03T10:41:09.459Z,10.57
2023-02-03T10:43:36.715Z,10.75
2023-02-03T10:46:03.487Z,10.61
2023-02-03T10:48:30.010Z,10.52
2023-02-03T10:50:58.393Z,10.78
2023-02-03T10:53:33.803Z,10.37
2023-02-03T10:56:13.997Z,10.44
2023-02-03T10:58:48.700Z,10.45
2023-02-03T11:01:19.269Z,10.31
2023-02-03T11:03:57.649Z,10.19
2023-02-03T11:06:24.459Z,10.10
2023-02-03T11:08:51.742Z,9.72
2023-02-03T11:11:22.341Z,9.84
2023-02-03T11:13:54.197Z,9.81
2023-02-03T11:16:23.181Z,9.87
2023-02-03T11:18:57.462Z,9.88
2023-02-03T11:21:29.896Z,9.92
2023-02-03T11:24:20.402Z,9.65
2023-02-03T11:26:54.471Z,9.81
2023-02-03T11:29:27.292Z,9.88
2023-02-03T11:32:01.334Z,9.87
2023-02-03T11:34:32.762Z,9.96
2023-02-03T11:37:25.566Z,10.23
2023-02-03T11:40:08.625Z,9.60
2023-02-03T11:42:38.386Z,9.73
2023-02-03T11:45:25.888Z,9.91
2023-02-03T11:48:18.233Z,9.99
2023-02-03T11:50:59.380Z,9.88
2023-02-03T11:53:32.214Z,9.82
2023-02-03T11:56:29.464Z,9.80
2023-02-03T11:59:33.419Z,10.01
2023-02-03T12:02:14.804Z,9.82
2023-02-03T12:05:00.851Z,10.03
2023-02-03T12:08:09.600Z,10.20
2023-02-03T12:11:07.205Z,9.99
2023-02-03T12:13:45.482Z,10.09
2023-02-03T12:16:47.393Z,9.87
2023-02-03T12:19:57.785Z,10.01
2023-02-03T12:22:46.288Z,10.20
2023-02-03T12:25:33.619Z,10.12
2023-02-03T12:28:03.052Z,10.22
2023-02-03T12:30:37.644Z,10.11
2023-02-03T12:33:19.151Z,10.33
2023-02-03T12:36:09.291Z,10.50
2023-02-03T12:38:44.796Z,10.21
2023-02-03T12:41:21.774Z,10.33
2023-02-03T12:43:55.053Z,10.65
2023-02-03T12:46:35.838Z,10.72
2023-02-03T12:49:21.186Z,11.13
2023-02-03T12:52:06.964Z,10.74
2023-02-03T12:54:55.016Z,10.90
2023-02-03T12:57:44.653Z,10.80
2023-02-03T13:00:48.519Z,10.63
2023-02-03T13:03:24.220Z,10.76
2023-02-03T13:06:04.727Z,10.96
2023-02-03T13:08:49.800Z,10.84
2023-02-03T13:11:31.218Z,11.22
2023-02-03T13:14:15.057Z,11.29
2023-02-03T13:16:53.559Z,11.70
2023-02-03T13:19:30.815Z,11.59
2023-02-03T13:21:57.387Z,11.69
2023-02-03T13:24:27.508Z,11.92
2023-02-03T13:27:03.999Z,12.10
2023-02-03T13:29:38.055Z,12.25
2023-02-03T13:32:15.736Z,12.44
2023-02-03T13:35:10.914Z,12.70
2023-02-03T13:38:07.050Z,12.97
2023-02-03T13:41:02.862Z,13.20
2023-02-03T13:43:40.191Z,13.57
2023-02-03T13:46:21.414Z,13.38
2023-02-03T13:48:48.408Z,13.76
2023-02-03T13:51:20.976Z,13.93
2023-02-03T13:53:50.717Z,13.99
2023-02-03T13:56:24.881Z,14.17
2023-02-03T13:59:19.889Z,14.03
2023-02-03T14:01:46.516Z,14.54
2023-02-03T14:04:21.853Z,14.75
2023-02-03T14:06:48.422Z,14.98
2023-02-03T14:09:30.066Z,15.24
2023-02-03T14:12:14.774Z,15.27
2023-02-03T14:14:56.999Z,15.47
2023-02-03T14:17:35.388Z,15.37
2023-02-03T14:20:25.448Z,15.85
2023-02-03T14:23:07.809Z,15.78
2023-02-03T14:25:43.492Z,16.13
2023-02-03T14:28:37.965Z,16.39
2023-02-03T14:31:09.992Z,16.87
2023-02-03T14:33:48.379Z,17.16
2023-02-03T14:36:35.523Z,17.28
2023-02-03T14:39:39.855Z,17.34
2023-02-03T14:42:21.460Z,17.51
2023-02-03T14:45:07.137Z,17.47
2023-02-03T14:47:55.625Z,17.38
2023-02-03T14:51:02.581Z,16.95
2023-02-03T14:53:45.874Z,16.90
2023-02-03T14:56:33.973Z,16.55
2023-02-03T14:59:12.622Z,16.05
2023-02-03T15:01:39.120Z,15.77
2023-02-03T15:04:23.005Z,15.59
2023-02-03T15:06:52.567Z,15.56
2023-02-03T15:09:37.582Z,15.57
2023-02-03T15:12:17.821Z,15.52
2023-02-03T15:14:47.303Z,15.37
2023-02-03T15:17:27.149Z,15.30
2023-02-03T15:19:54.170Z,15.23
2023-02-03T15:22:23.796Z,15.00
2023-02-03T15:25:00.287Z,15.02
2023-02-03T15:27:29.526Z,14.61
2023-02-03T15:29:56.125Z,14.63
2023-02-03T15:32:35.893Z,14.35
2023-02-03T15:35:09.569Z,14.36
2023-02-03T15:37:50.357Z,14.15
2023-02-03T15:40:23.562Z,14.04
2023-02-03T15:43:06.578Z,13.79
2023-02-03T15:45:38.400Z,13.66
2023-02-03T15:48:13.414Z,13.35
2023-02-03T15:50:51.801Z,13.05
2023-02-03T15:53:46.679Z,12.97
2023-02-03T15:56:28.347Z,12.94
2023-02-03T15:58:54.867Z,12.60
2023-02-03T16:01:23.828Z,12.62
2023-02-03T16:03:54.307Z,12.33
2023-02-03T16:06:37.709Z,12.17
2023-02-03T16:09:06.573Z,11.90
2023-02-03T16:11:39.381Z,11.83
2023-02-03T16:14:10.827Z,11.61
2023-02-03T16:16:55.211Z,11.74
2023-02-03T16:19:29.074Z,11.82
2023-02-03T16:21:57.654Z,11.84
2023-02-03T16:24:42.899Z,11.96
2023-02-03T16:27:28.063Z,11.68
2023-02-03T16:30:14.751Z,11.71
2023-02-03T16:32:41.236Z,11.60
2023-02-03T16:35:10.247Z,11.39
2023-02-03T16:37:44.337Z,10.93
2023-02-03T16:40:13.250Z,10.51
2023-02-03T16:42:40.892Z,10.31
2023-02-03T16:45:18.263Z,10.46
2023-02-03T16:47:46.260Z,10.44
2023-02-03T16:50:15.139Z,10.31
2023-02-03T16:52:41.661Z,10.15
2023-02-03T16:55:09.143Z,9.96
2023-02-03T16:57:35.632Z,10.18
2023-02-03T17:00:03.320Z,10.17
2023-02-03T17:02:30.181Z,10.49
2023-02-03T17:04:56.718Z,10.38
2023-02-03T17:07:23.226Z,10.53
2023-02-03T17:09:49.733Z,10.31
2023-02-03T17:12:16.249Z,10.11
2023-02-03T17:14:42.729Z,10.27
2023-02-03T17:17:09.239Z,10.37
2023-02-03T17:19:35.697Z,10.54
2023-02-03T17:22:02.245Z,10.59
2023-02-03T17:24:28.908Z,10.72
2023-02-03T17:26:57.361Z,10.72
2023-02-03T17:29:24.568Z,10.67
2023-02-03T17:31:51.076Z,10.68
2023-02-03T17:34:17.681Z,10.67
2023-02-03T17:36:44.134Z,10.57
2023-02-03T17:55:33.190Z,10.24
2023-02-03T17:58:00.101Z,10.32
2023-02-03T18:00:26.989Z,10.40
2023-02-03T18:02:53.452Z,10.46
2023-02-03T18:05:20.004Z,10.50
2023-02-03T18:07:49.777Z,10.46
2023-02-03T18:10:16.675Z,10.31
2023-02-03T18:12:43.142Z,10.36
2023-02-03T18:15:09.773Z,10.25
2023-02-03T18:17:36.277Z,10.28
2023-02-03T18:20:02.850Z,10.14
2023-02-03T18:22:29.929Z,10.05
2023-02-03T18:24:56.500Z,10.15
2023-02-03T18:27:23.065Z,10.17
2023-02-03T18:29:49.579Z,10.18
2023-02-03T18:32:16.727Z,10.13
2023-02-03T18:34:43.734Z,10.16
2023-02-03T18:37:10.986Z,10.00
2023-02-03T18:39:37.685Z,9.93
2023-02-03T18:42:04.382Z,9.79
2023-02-03T18:44:30.976Z,9.52
2023-02-03T18:46:57.501Z,9.49
2023-02-03T18:49:24.063Z,9.37
2023-02-03T18:51:50.529Z,9.52
2023-02-03T18:54:16.989Z,9.53
2023-02-03T18:56:43.454Z,9.36
2023-02-03T18:59:11.191Z,9.23
2023-02-03T19:01:38.533Z,8.97
2023-02-03T19:04:05.833Z,8.96
2023-02-03T19:06:34.394Z,9.03
2023-02-03T19:09:01.546Z,9.23
2023-02-03T19:11:28.077Z,9.24
2023-02-03T19:13:54.528Z,8.89
2023-02-03T19:16:21.112Z,9.08
2023-02-03T19:18:47.615Z,8.88
2023-02-03T19:21:14.293Z,8.73
2023-02-03T19:23:42.396Z,8.28
2023-02-03T19:26:09.339Z,8.30
2023-02-03T19:28:36.380Z,8.24
2023-02-03T19:31:11.280Z,8.02
2023-02-03T19:33:37.880Z,8.02
2023-02-03T19:36:06.010Z,8.29
2023-02-03T19:38:35.461Z,7.83
2023-02-03T19:41:01.941Z,7.86
2023-02-03T19:43:29.608Z,7.73
2023-02-03T19:45:56.257Z,7.87
2023-02-03T19:48:23.006Z,7.92
2023-02-03T19:50:49.491Z,8.01
2023-02-03T19:53:17.605Z,8.00
2023-02-03T19:55:45.854Z,8.36
2023-02-03T19:58:13.420Z,8.30
2023-02-03T20:00:40.859Z,8.30
2023-02-03T20:03:07.330Z,8.00
2023-02-03T20:05:33.911Z,8.00
2023-02-03T20:08:00.630Z,7.70
2023-02-03T20:10:27.380Z,7.61
2023-02-03T20:12:57.740Z,7.83
2023-02-03T20:15:24.277Z,7.98
2023-02-03T20:17:50.856Z,8.06
2023-02-03T20:20:19.200Z,8.48
2023-02-03T20:22:47.116Z,8.52
2023-02-03T20:25:13.736Z,8.58
2023-02-03T20:27:40.362Z,8.44
2023-02-03T20:30:07.978Z,8.65
2023-02-03T20:32:34.570Z,8.89
2023-02-03T20:35:01.247Z,9.28
2023-02-03T20:37:27.703Z,9.53
2023-02-03T20:39:54.188Z,9.44
2023-02-03T20:42:21.437Z,9.52
2023-02-03T20:44:47.933Z,9.71
2023-02-03T20:47:17.032Z,9.74
2023-02-03T20:49:43.894Z,9.64
2023-02-03T20:52:14.296Z,9.82
2023-02-03T20:54:40.959Z,9.51
2023-02-03T20:57:14.655Z,9.22
2023-02-03T20:59:42.363Z,9.49
2023-02-03T21:02:19.188Z,9.59
2023-02-03T21:04:45.637Z,9.59
2023-02-03T21:07:14.029Z,9.68
2023-02-03T21:09:40.691Z,9.76
2023-02-03T21:12:12.294Z,9.74
2023-02-03T21:14:42.811Z,9.80
2023-02-03T21:17:18.522Z,9.86
2023-02-03T21:19:45.341Z,9.72
2023-02-03T21:22:22.480Z,9.78
2023-02-03T21:24:55.282Z,9.64
2023-02-03T21:27:33.181Z,9.38
2023-02-03T21:30:27.161Z,9.48
2023-02-03T21:32:53.970Z,9.55
2023-02-03T21:35:24.871Z,9.54
2023-02-03T21:37:59.863Z,9.49
2023-02-03T21:40:30.010Z,9.61
2023-02-03T21:42:58.110Z,9.49
2023-02-03T21:45:34.883Z,9.24
2023-02-03T21:48:22.619Z,9.34
2023-02-03T21:50:49.108Z,9.24
2023-02-03T21:53:27.567Z,9.04
2023-02-03T21:55:54.760Z,9.08
2023-02-03T21:58:32.156Z,8.55
2023-02-03T22:01:01.699Z,8.56
2023-02-03T22:03:29.778Z,8.66
2023-02-03T22:06:18.984Z,8.18
2023-02-03T22:08:48.315Z,8.02
2023-02-03T22:11:16.795Z,8.25
2023-02-03T22:13:43.225Z,8.07
2023-02-03T22:16:10.272Z,8.31
2023-02-03T22:18:36.829Z,8.34
2023-02-03T22:21:03.300Z,8.26
2023-02-03T22:23:29.796Z,8.37
2023-02-03T22:25:56.321Z,8.56
2023-02-03T22:28:22.811Z,8.59
2023-02-03T22:30:49.375Z,8.49
2023-02-03T22:33:15.924Z,8.28
2023-02-03T22:35:42.419Z,8.28
2023-02-03T22:38:08.883Z,8.56
2023-02-03T22:40:35.386Z,8.76
2023-02-03T22:43:01.868Z,8.72
2023-02-03T22:45:28.505Z,8.92
2023-02-03T22:47:55.052Z,9.17
2023-02-03T22:50:34.420Z,9.25
2023-02-03T22:53:01.859Z,9.30
2023-02-03T22:55:28.368Z,9.18
2023-02-03T22:57:54.824Z,8.60
2023-02-03T23:00:23.731Z,8.89
2023-02-03T23:02:50.797Z,8.85
2023-02-03T23:05:18.633Z,8.81
2023-02-03T23:07:45.988Z,8.47
2023-02-03T23:10:23.077Z,8.10
2023-02-03T23:12:50.711Z,7.88
2023-02-03T23:15:17.684Z,7.78
2023-02-03T23:17:45.365Z,7.98
2023-02-03T23:20:14.024Z,8.25
2023-02-03T23:22:40.497Z,7.88
2023-02-03T23:25:07.383Z,7.78
2023-02-03T23:27:33.863Z,7.84
2023-02-03T23:30:00.359Z,7.88
2023-02-03T23:32:26.872Z,8.08
2023-02-03T23:34:53.363Z,8.09
2023-02-03T23:37:19.804Z,8.29
2023-02-03T23:39:46.267Z,8.28
2023-02-03T23:42:12.720Z,8.00
2023-02-03T23:44:39.177Z,7.60
2023-02-03T23:47:05.646Z,7.27
2023-02-03T23:49:32.121Z,7.37
2023-02-03T23:51:59.344Z,7.49
2023-02-03T23:54:26.164Z,7.36
2023-02-03T23:56:52.973Z,7.64
2023-02-03T23:59:19.722Z,7.90
